Terminal Aerodrome Forecast
Issued by NWS Upton, NY

Home | Current Version | Previous Version | Text Only | Print | Product List | Glossary On
Versions: 1 2 3 4 5 6 7 8 9 10 11 12 13 14 15 16 17 18 19 20 21 22 23 24 25 26 27 28 29 30 31 32 33 34 35 36 37 38 39 40 41 42 43
000
FTUS41 KOKX 242050 AAD
TAFEWR
TAF AMD
KEWR 242050Z 2421/2524 33016G24KT 2SM -RA BR BKN008
      TEMPO 2421/2422 5SM -RA BR OVC015
     FM242300 32019G28KT 2SM -RA BR OVC009
     FM250500 31020G29KT P6SM SCT015 BKN040
     FM250800 31017G24KT P6SM SCT250
     FM251300 29014G21KT P6SM FEW250=

USA.gov is the U.S. government's official web portal to all federal, state and local government web resources and services.